Dn Vatan — TCZN6 — position and weather

sailwx.info

Track history (hours):
 
Tides and Currents Weather Stations Pressure Air Temp Water Temp Dewpoint Dewpoint Depression Visibility Wind Speed Wind Dir Waves Ship Positions

Dn Vatan

Last reported at 2016-May-28 13:06 UTC. Time now 2016-May-28 22:07 UTC.
Position N 38°24' W 124°16'.

Length 196 m; draft 6.6 m.

Type: Cargo ship. MMSI: 270991365.

Date/timePositionNaut miles runAvg speedWind from/ knotsBaromVisibWave heightAir tempDewpointWater temp
2016-May-28 13:06N 38°24' W 124°16'14 9.0
2016-May-28 11:33N 38°20' W 123°60'9 9.0
2016-May-28 10:33N 38°17' W 123°49'9 8.7
2016-May-28 09:33N 38°14' W 123°38'9 8.9
2016-May-28 08:33N 38°11' W 123°28'8 8.4
2016-May-28 07:33N 38°07' W 123°18'8 7.9
2016-May-28 06:33N 38°01' W 123°12'8 8.2
2016-May-28 05:34N 37°56' W 123°03'9 8.8
2016-May-28 04:33N 37°52' W 122°54'9 9.4
2016-May-28 03:33N 37°46' W 122°44'7 7.3
2016-May-28 02:33N 37°47' W 122°35'10 9.6
2016-May-28 01:34N 37°52' W 122°25'4 3.7
2016-May-28 00:33N 37°55' W 122°22'0 0.0
2016-May-26 19:27N 37°55' W 122°22'0 0.0
2016-May-26 16:30N 37°55' W 122°22'0 0.0
2016-May-26 15:09N 37°55' W 122°22'0 0.0
2016-May-26 14:33N 37°55' W 122°22'0 0.0
2016-May-26 13:33N 37°55' W 122°22'0 0.0
2016-May-26 12:33N 37°55' W 122°22'0 0.0
2016-May-26 11:33N 37°55' W 122°22'0 0.0
2016-May-26 10:27N 37°55' W 122°22'0 0.0
2016-May-26 09:33N 37°55' W 122°22'0 0.0
2016-May-26 08:30N 37°55' W 122°22'0 0.0
2016-May-26 07:33N 37°55' W 122°22'0 0.0
2016-May-26 06:33N 37°55' W 122°22'0 0.0
2016-May-26 05:33N 37°55' W 122°22'0 0.0
2016-May-26 04:30N 37°55' W 122°22'0 0.0
2016-May-26 03:24N 37°55' W 122°22'0 0.0
2016-May-26 02:15N 37°55' W 122°22'0 0.0
2016-May-26 00:33N 37°55' W 122°22'0 0.0
2016-May-25 19:18N 37°55' W 122°22'0 0.0
2016-May-25 18:21N 37°55' W 122°22'0 0.0
2016-May-25 17:33N 37°55' W 122°22'0 0.0
2016-May-25 16:33N 37°55' W 122°22'0 0.0
2016-May-25 15:33N 37°55' W 122°22'0 0.0
2016-May-25 14:33N 37°55' W 122°22'0 0.0
2016-May-25 13:33N 37°55' W 122°22'0 0.0
2016-May-25 12:33N 37°55' W 122°22'0 0.0
2016-May-25 11:33N 37°55' W 122°22'0 0.0
2016-May-25 10:30N 37°55' W 122°22'0 0.0
2016-May-25 09:21N 37°55' W 122°22'0 0.0
2016-May-25 08:33N 37°55' W 122°22'0 0.0
2016-May-25 07:33N 37°55' W 122°22'0 0.0
2016-May-25 06:33N 37°55' W 122°22'0 0.0
2016-May-25 05:33N 37°55' W 122°22'0 0.0
2016-May-25 04:33N 37°55' W 122°22'0 0.0
2016-May-25 03:33N 37°55' W 122°22'0 0.0
2016-May-25 02:21N 37°55' W 122°22'0 0.0
2016-May-25 01:33N 37°55' W 122°22'0 0.0
2016-May-25 00:30N 37°55' W 122°22'0 0.0
2016-May-24 23:21N 37°55' W 122°22'0 0.0
2016-May-24 22:30N 37°55' W 122°22'0 0.0
2016-May-24 21:33N 37°55' W 122°22'0 0.0
2016-May-24 20:33N 37°55' W 122°22'0 0.0
2016-May-24 19:33N 37°55' W 122°22'0 0.0
2016-May-24 18:21N 37°55' W 122°22'0 0.0
2016-May-24 17:30N 37°55' W 122°22'0 0.0
2016-May-24 16:30N 37°55' W 122°22'0 0.0
2016-May-24 15:33N 37°55' W 122°22'0 0.0
2016-May-24 14:33N 37°55' W 122°22'0 0.0
2016-May-24 13:33N 37°55' W 122°22'0 0.0
2016-May-24 12:33N 37°55' W 122°22'0 0.0
2016-May-24 11:33N 37°55' W 122°22'0 0.0
2016-May-24 10:33N 37°55' W 122°22'0 0.0
2016-May-24 09:30N 37°55' W 122°22'0 0.0
2016-May-24 08:33N 37°55' W 122°22'0 0.0
2016-May-24 07:33N 37°55' W 122°22'0 0.0
2016-May-24 06:27N 37°55' W 122°22'0 0.0
2016-May-24 05:33N 37°55' W 122°22'0 0.0
2016-May-24 04:33N 37°55' W 122°22'0 0.0
2016-May-24 03:21N 37°55' W 122°22'0 0.0
2016-May-24 02:33N 37°55' W 122°22'0 0.0
2016-May-24 01:33N 37°55' W 122°22'0 0.0
2016-May-24 00:30N 37°55' W 122°22'0 0.0
2016-May-23 23:30N 37°55' W 122°22'0 0.0
2016-May-23 22:30N 37°55' W 122°22'0 0.0
2016-May-23 21:27N 37°55' W 122°22'0 0.0
2016-May-23 20:30N 37°55' W 122°22'0 0.0
2016-May-23 19:33N 37°55' W 122°22'0 0.0
2016-May-23 18:33N 37°55' W 122°22'0 0.0
2016-May-23 17:33N 37°55' W 122°22'0 0.0
2016-May-23 16:33N 37°55' W 122°22'0 0.0
2016-May-23 15:33N 37°55' W 122°22'1 0.9
2016-May-23 14:34N 37°54' W 122°22'4 3.5
2016-May-23 13:34N 37°52' W 122°25'1111.0
2016-May-23 12:33N 37°41' W 122°20'1111.0
2016-May-23 11:34N 37°33' W 122°12'2 0.1
2016-May-22 14:30N 37°31' W 122°13'0 0.0
2016-May-22 13:18N 37°31' W 122°13'0 0.0
2016-May-22 12:29N 37°31' W 122°13'0 0.0
2016-May-21 22:24N 37°31' W 122°13'0 0.0
2016-May-21 09:24N 37°31' W 122°13'0 0.0
2016-May-21 08:30N 37°31' W 122°13'0 0.0
2016-May-21 04:30N 37°31' W 122°13'0 0.0
2016-May-21 03:06N 37°31' W 122°13'0 0.0
2016-May-21 02:24N 37°31' W 122°13'0 0.0
2016-May-21 01:30N 37°31' W 122°13'0 0.0
2016-May-21 00:23N 37°31' W 122°13'0 0.0
2016-May-20 22:23N 37°31' W 122°13'0 0.0
2016-May-20 19:29N 37°31' W 122°13'0 0.0
2016-May-20 18:30N 37°31' W 122°13'0 0.0
2016-May-20 17:12N 37°31' W 122°13'1 1.2
2016-May-20 16:33N 37°31' W 122°12'9 9.1
2016-May-20 15:33N 37°39' W 122°19'6 6.0
2016-May-20 14:31N 37°45' W 122°20'0 0.0
2016-May-20 13:31N 37°45' W 122°20'0 0.2
2016-May-20 12:31N 37°45' W 122°20'0 0.1
2016-May-20 11:31N 37°45' W 122°20'0 0.0
2016-May-20 10:31N 37°45' W 122°20'0 0.0
2016-May-20 09:31N 37°45' W 122°20'0 0.1
2016-May-20 08:31N 37°45' W 122°20'0 0.0
2016-May-20 07:31N 37°45' W 122°20'0 0.0
2016-May-20 06:31N 37°45' W 122°20'0 0.0
2016-May-20 05:31N 37°45' W 122°20'0 0.0
2016-May-20 04:31N 37°45' W 122°20'0 0.0
2016-May-20 03:31N 37°45' W 122°20'0 0.0
2016-May-20 02:31N 37°45' W 122°20'0 0.0
2016-May-20 01:31N 37°45' W 122°20'0 0.3
2016-May-20 00:33N 37°45' W 122°21'10 9.6
2016-May-19 23:34N 37°54' W 122°26'1111.4
2016-May-19 22:33N 38°03' W 122°19'10 9.4
2016-May-19 21:32N 38°03' W 122°06'9 7.8
2016-May-19 20:19N 38°03' W 121°54'7 8.8
2016-May-19 19:32N 38°05' W 121°46'  
Track history (hours):
 
Tides and Currents Weather Stations Pressure Air Temp Water Temp Dewpoint Dewpoint Depression Visibility Wind Speed Wind Dir Waves Ship Positions

Dn Vatan

Last reported at 2016-May-28 13:06 UTC. Time now 2016-May-28 22:07 UTC.
Position N 38°24' W 124°16'.

Length 196 m; draft 6.6 m.

Type: Cargo ship. MMSI: 270991365.

Date/timePositionNaut miles runAvg speedWind from/ knotsBaromVisibWave heightAir tempDewpointWater temp
2016-May-28 13:06N 38°24' W 124°16'14 9.0
2016-May-28 11:33N 38°20' W 123°60'9 9.0
2016-May-28 10:33N 38°17' W 123°49'9 8.7
2016-May-28 09:33N 38°14' W 123°38'9 8.9
2016-May-28 08:33N 38°11' W 123°28'8 8.4
2016-May-28 07:33N 38°07' W 123°18'8 7.9
2016-May-28 06:33N 38°01' W 123°12'8 8.2
2016-May-28 05:34N 37°56' W 123°03'9 8.8
2016-May-28 04:33N 37°52' W 122°54'9 9.4
2016-May-28 03:33N 37°46' W 122°44'7 7.3
2016-May-28 02:33N 37°47' W 122°35'10 9.6
2016-May-28 01:34N 37°52' W 122°25'4 3.7
2016-May-28 00:33N 37°55' W 122°22'0 0.0
2016-May-26 19:27N 37°55' W 122°22'0 0.0
2016-May-26 16:30N 37°55' W 122°22'0 0.0
2016-May-26 15:09N 37°55' W 122°22'0 0.0
2016-May-26 14:33N 37°55' W 122°22'0 0.0
2016-May-26 13:33N 37°55' W 122°22'0 0.0
2016-May-26 12:33N 37°55' W 122°22'0 0.0
2016-May-26 11:33N 37°55' W 122°22'0 0.0
2016-May-26 10:27N 37°55' W 122°22'0 0.0
2016-May-26 09:33N 37°55' W 122°22'0 0.0
2016-May-26 08:30N 37°55' W 122°22'0 0.0
2016-May-26 07:33N 37°55' W 122°22'0 0.0
2016-May-26 06:33N 37°55' W 122°22'0 0.0
2016-May-26 05:33N 37°55' W 122°22'0 0.0
2016-May-26 04:30N 37°55' W 122°22'0 0.0
2016-May-26 03:24N 37°55' W 122°22'0 0.0
2016-May-26 02:15N 37°55' W 122°22'0 0.0
2016-May-26 00:33N 37°55' W 122°22'0 0.0
2016-May-25 19:18N 37°55' W 122°22'0 0.0
2016-May-25 18:21N 37°55' W 122°22'0 0.0
2016-May-25 17:33N 37°55' W 122°22'0 0.0
2016-May-25 16:33N 37°55' W 122°22'0 0.0
2016-May-25 15:33N 37°55' W 122°22'0 0.0
2016-May-25 14:33N 37°55' W 122°22'0 0.0
2016-May-25 13:33N 37°55' W 122°22'0 0.0
2016-May-25 12:33N 37°55' W 122°22'0 0.0
2016-May-25 11:33N 37°55' W 122°22'0 0.0
2016-May-25 10:30N 37°55' W 122°22'0 0.0
2016-May-25 09:21N 37°55' W 122°22'0 0.0
2016-May-25 08:33N 37°55' W 122°22'0 0.0
2016-May-25 07:33N 37°55' W 122°22'0 0.0
2016-May-25 06:33N 37°55' W 122°22'0 0.0
2016-May-25 05:33N 37°55' W 122°22'0 0.0
2016-May-25 04:33N 37°55' W 122°22'0 0.0
2016-May-25 03:33N 37°55' W 122°22'0 0.0
2016-May-25 02:21N 37°55' W 122°22'0 0.0
2016-May-25 01:33N 37°55' W 122°22'0 0.0
2016-May-25 00:30N 37°55' W 122°22'0 0.0
2016-May-24 23:21N 37°55' W 122°22'0 0.0
2016-May-24 22:30N 37°55' W 122°22'0 0.0
2016-May-24 21:33N 37°55' W 122°22'0 0.0
2016-May-24 20:33N 37°55' W 122°22'0 0.0
2016-May-24 19:33N 37°55' W 122°22'0 0.0
2016-May-24 18:21N 37°55' W 122°22'0 0.0
2016-May-24 17:30N 37°55' W 122°22'0 0.0
2016-May-24 16:30N 37°55' W 122°22'0 0.0
2016-May-24 15:33N 37°55' W 122°22'0 0.0
2016-May-24 14:33N 37°55' W 122°22'0 0.0
2016-May-24 13:33N 37°55' W 122°22'0 0.0
2016-May-24 12:33N 37°55' W 122°22'0 0.0
2016-May-24 11:33N 37°55' W 122°22'0 0.0
2016-May-24 10:33N 37°55' W 122°22'0 0.0
2016-May-24 09:30N 37°55' W 122°22'0 0.0
2016-May-24 08:33N 37°55' W 122°22'0 0.0
2016-May-24 07:33N 37°55' W 122°22'0 0.0
2016-May-24 06:27N 37°55' W 122°22'0 0.0
2016-May-24 05:33N 37°55' W 122°22'0 0.0
2016-May-24 04:33N 37°55' W 122°22'0 0.0
2016-May-24 03:21N 37°55' W 122°22'0 0.0
2016-May-24 02:33N 37°55' W 122°22'0 0.0
2016-May-24 01:33N 37°55' W 122°22'0 0.0
2016-May-24 00:30N 37°55' W 122°22'0 0.0
2016-May-23 23:30N 37°55' W 122°22'0 0.0
2016-May-23 22:30N 37°55' W 122°22'0 0.0
2016-May-23 21:27N 37°55' W 122°22'0 0.0
2016-May-23 20:30N 37°55' W 122°22'0 0.0
2016-May-23 19:33N 37°55' W 122°22'0 0.0
2016-May-23 18:33N 37°55' W 122°22'0 0.0
2016-May-23 17:33N 37°55' W 122°22'0 0.0
2016-May-23 16:33N 37°55' W 122°22'0 0.0
2016-May-23 15:33N 37°55' W 122°22'1 0.9
2016-May-23 14:34N 37°54' W 122°22'4 3.5
2016-May-23 13:34N 37°52' W 122°25'1111.0
2016-May-23 12:33N 37°41' W 122°20'1111.0
2016-May-23 11:34N 37°33' W 122°12'2 0.1
2016-May-22 14:30N 37°31' W 122°13'0 0.0
2016-May-22 13:18N 37°31' W 122°13'0 0.0
2016-May-22 12:29N 37°31' W 122°13'0 0.0
2016-May-21 22:24N 37°31' W 122°13'0 0.0
2016-May-21 09:24N 37°31' W 122°13'0 0.0
2016-May-21 08:30N 37°31' W 122°13'0 0.0
2016-May-21 04:30N 37°31' W 122°13'0 0.0
2016-May-21 03:06N 37°31' W 122°13'0 0.0
2016-May-21 02:24N 37°31' W 122°13'0 0.0
2016-May-21 01:30N 37°31' W 122°13'0 0.0
2016-May-21 00:23N 37°31' W 122°13'0 0.0
2016-May-20 22:23N 37°31' W 122°13'0 0.0
2016-May-20 19:29N 37°31' W 122°13'0 0.0
2016-May-20 18:30N 37°31' W 122°13'0 0.0
2016-May-20 17:12N 37°31' W 122°13'1 1.2
2016-May-20 16:33N 37°31' W 122°12'9 9.1
2016-May-20 15:33N 37°39' W 122°19'6 6.0
2016-May-20 14:31N 37°45' W 122°20'0 0.0
2016-May-20 13:31N 37°45' W 122°20'0 0.2
2016-May-20 12:31N 37°45' W 122°20'0 0.1
2016-May-20 11:31N 37°45' W 122°20'0 0.0
2016-May-20 10:31N 37°45' W 122°20'0 0.0
2016-May-20 09:31N 37°45' W 122°20'0 0.1
2016-May-20 08:31N 37°45' W 122°20'0 0.0
2016-May-20 07:31N 37°45' W 122°20'0 0.0
2016-May-20 06:31N 37°45' W 122°20'0 0.0
2016-May-20 05:31N 37°45' W 122°20'0 0.0
2016-May-20 04:31N 37°45' W 122°20'0 0.0
2016-May-20 03:31N 37°45' W 122°20'0 0.0
2016-May-20 02:31N 37°45' W 122°20'0 0.0
2016-May-20 01:31N 37°45' W 122°20'0 0.3
2016-May-20 00:33N 37°45' W 122°21'10 9.6
2016-May-19 23:34N 37°54' W 122°26'1111.4
2016-May-19 22:33N 38°03' W 122°19'10 9.4
2016-May-19 21:32N 38°03' W 122°06'9 7.8
2016-May-19 20:19N 38°03' W 121°54'7 8.8
2016-May-19 19:32N 38°05' W 121°46'  

Dump ship's entire track history